KAFW

Fort Worth Alliance Airport

Fort Worth, Texas, USA
METAR KAFW 161753Z 19013KT 10SM OVC012 13/09 A3017 RMK AO2 SLP217 T01330094 10133 20078 58008
Observed Flight Rules
Jan-16 @ 17:53 UTC (34 minutes ago) Marginal Visual Flight Rules
Wind Visibility Clouds
190° at 13 knots 10 miles
  • Overcast at 1,200' AGL
Temperatures Readings
Current 13°C / 55°F
Dewpoint 9°C / 48°F
Humidity 77%
Altimeter 30.17" Hg
Pressure 1021.7 hPa
Elevation 233
METAR KAFW 161753Z 19013KT 10SM OVC012 13/09 A3017 RMK AO2 SLP217 T01330094 10133 20078 58008
Observed Flight Rules
Jan-16 @ 17:53 UTC
(34 minutes ago)
MVFR
Wind Visibility
190° at 13 knots 10 miles
Clouds
  • Overcast at 1,200' AGL
Temperature Dewpoint
13°C / 55°F 9°C / 48°F
Humidity Altimeter Pressure
77% 30.17" Hg 1021.7 hPa